TimeICT,TemperatureF,Dew PointF,Humidity,Sea Level PressureIn,VisibilityMPH,Wind Direction,Wind SpeedMPH,Gust SpeedMPH,PrecipitationIn,Events,Conditions,WindDirDegrees,DateUTC
12:00 AM,84.2,73.4,70,29.83,4.3,South,3.5,-,N/A,,Unknown,190,2012-11-04 17:00:00
12:30 AM,82.4,73.4,74,29.83,4.3,Variable,2.3,-,N/A,,Unknown,0,2012-11-04 17:30:00
1:00 AM,82,76,78,29.83,5,Calm,Calm,,,,Mist,,2012-11-04 18:00:00
1:00 AM,84.2,73.4,70,29.83,4.3,Calm,Calm,-,N/A,,Unknown,0,2012-11-04 18:00:00
1:30 AM,82.4,75.2,79,29.83,3.7,Calm,Calm,-,N/A,,Unknown,0,2012-11-04 18:30:00
2:00 AM,82.4,73.4,74,29.83,3.7,ESE,3.5,-,N/A,,Unknown,110,2012-11-04 19:00:00
2:30 AM,82.4,73.4,74,29.80,3.1,Variable,1.2,-,N/A,,Mist,0,2012-11-04 19:30:00
3:00 AM,82.4,73.4,74,29.80,2.5,SW,3.5,-,N/A,,Mist,230,2012-11-04 20:00:00
3:30 AM,80.6,73.4,79,29.80,2.5,Calm,Calm,-,N/A,,Mist,0,2012-11-04 20:30:00
4:00 AM,80.6,73.4,79,29.80,2.5,Calm,Calm,-,N/A,,Mist,0,2012-11-04 21:00:00
4:30 AM,80.6,73.4,79,29.80,2.5,Calm,Calm,-,N/A,,Mist,0,2012-11-04 21:30:00
5:00 AM,80.6,73.4,79,29.80,2.5,Calm,Calm,-,N/A,,Mist,0,2012-11-04 22:00:00
5:30 AM,80.6,75.2,84,29.80,2.5,Calm,Calm,-,N/A,,Mist,0,2012-11-04 22:30:00
6:00 AM,80.6,75.2,84,29.80,2.5,NE,3.5,-,N/A,,Mist,40,2012-11-04 23:00:00
6:30 AM,80.6,73.4,79,29.80,1.9,NE,3.5,-,N/A,,Mist,40,2012-11-04 23:30:00
7:00 AM,81,76,82,29.83,5,Calm,Calm,,,,Mist,,2012-11-05 00:00:00
7:00 AM,80.6,75.2,84,29.83,2.5,ENE,3.5,-,N/A,,Mist,70,2012-11-05 00:00:00
7:30 AM,82.4,77.0,84,29.86,3.1,ENE,3.5,-,N/A,,Mist,60,2012-11-05 00:30:00
8:00 AM,84.2,77.0,79,29.86,3.1,NE,4.6,-,N/A,,Mist,40,2012-11-05 01:00:00
8:30 AM,84.2,77.0,79,29.86,3.1,ENE,3.5,-,N/A,,Mist,60,2012-11-05 01:30:00
9:00 AM,86.0,77.0,74,29.89,3.1,East,3.5,-,N/A,,Mist,80,2012-11-05 02:00:00
9:30 AM,87.8,75.2,66,29.89,3.1,East,3.5,-,N/A,,Haze,100,2012-11-05 02:30:00
10:00 AM,89.6,73.4,59,29.89,4.3,East,4.6,-,N/A,,Scattered Clouds,100,2012-11-05 03:00:00
10:30 AM,89.6,71.6,55,29.86,5.0,ENE,5.8,-,N/A,,Scattered Clouds,70,2012-11-05 03:30:00
11:00 AM,91.4,71.6,52,29.86,5.6,East,5.8,-,N/A,,Scattered Clouds,80,2012-11-05 04:00:00
12:00 PM,91.4,71.6,52,29.83,6.2,SE,3.5,-,N/A,,Scattered Clouds,140,2012-11-05 05:00:00
12:30 PM,93.2,68.0,44,29.83,6.2,East,8.1,-,N/A,,Scattered Clouds,90,2012-11-05 05:30:00
1:00 PM,91,78,57,29.77,5,West,2.3,,,,Mist,270,2012-11-05 06:00:00
1:00 PM,93.2,69.8,46,29.80,6.2,ENE,8.1,-,N/A,,Scattered Clouds,70,2012-11-05 06:00:00
1:30 PM,93.2,69.8,46,29.80,6.2,East,6.9,-,N/A,,Scattered Clouds,100,2012-11-05 06:30:00
2:00 PM,93.2,69.8,46,29.77,6.2,ENE,8.1,-,N/A,,Scattered Clouds,60,2012-11-05 07:00:00
2:30 PM,91.4,71.6,52,29.77,6.2,East,4.6,-,N/A,,Scattered Clouds,100,2012-11-05 07:30:00
3:00 PM,93.2,68.0,44,29.77,6.2,East,8.1,-,N/A,,Scattered Clouds,100,2012-11-05 08:00:00
3:30 PM,93.2,69.8,46,29.77,6.2,ESE,5.8,-,N/A,,Scattered Clouds,120,2012-11-05 08:30:00
4:00 PM,93.2,69.8,46,29.77,6.2,East,4.6,-,N/A,,Scattered Clouds,100,2012-11-05 09:00:00
4:30 PM,93.2,68.0,44,29.74,6.2,SE,5.8,-,N/A,,Scattered Clouds,130,2012-11-05 09:30:00
5:00 PM,91.4,69.8,49,29.77,6.2,SE,3.5,-,N/A,,Scattered Clouds,130,2012-11-05 10:00:00
5:30 PM,91.4,69.8,49,29.77,6.2,ESE,3.5,-,N/A,,Scattered Clouds,110,2012-11-05 10:30:00
6:00 PM,87.8,73.4,62,29.77,6.2,West,5.8,-,N/A,,Scattered Clouds,270,2012-11-05 11:00:00
6:30 PM,86.0,73.4,66,29.77,6.2,WNW,3.5,-,N/A,,Scattered Clouds,300,2012-11-05 11:30:00
7:00 PM,86,75,62,29.78,5,Calm,Calm,,,,Mist,,2012-11-05 12:00:00
7:00 PM,86.0,73.4,66,29.80,6.2,WNW,3.5,-,N/A,,Scattered Clouds,290,2012-11-05 12:00:00
7:30 PM,86.0,73.4,66,29.80,5.0,West,4.6,-,N/A,,Scattered Clouds,280,2012-11-05 12:30:00
8:00 PM,86.0,73.4,66,29.83,4.3,SW,4.6,-,N/A,,Scattered Clouds,220,2012-11-05 13:00:00
8:30 PM,84.2,71.6,66,29.86,5.0,SSW,6.9,-,N/A,,Scattered Clouds,200,2012-11-05 13:30:00
9:00 PM,84.2,68.0,58,29.86,6.2,WSW,5.8,-,N/A,,Scattered Clouds,240,2012-11-05 14:00:00
9:30 PM,84.2,66.2,55,29.86,6.2,Variable,2.3,-,N/A,,Scattered Clouds,0,2012-11-05 14:30:00
10:00 PM,84.2,66.2,55,29.86,6.2,SSW,3.5,-,N/A,,Mostly Cloudy,200,2012-11-05 15:00:00
10:30 PM,84.2,68.0,58,29.86,6.2,Variable,2.3,-,N/A,,Mostly Cloudy,0,2012-11-05 15:30:00
11:00 PM,84.2,66.2,55,29.86,6.2,South,3.5,-,N/A,,Mostly Cloudy,190,2012-11-05 16:00:00
11:30 PM,86.0,71.6,62,29.86,6.2,Variable,3.5,-,N/A,,Mostly Cloudy,0,2012-11-05 16:30:00